Aviation Digital Data Service (ADDS)

Output produced by TAFs form (0759 UTC 22 October 2014)
found at http://aviationweather.gov/adds/tafs/
 
KABQ 220533Z 2206/2306 VRB06KT P6SM SCT050 BKN100 
     FM221500 32006KT P6SM FEW060 SCT140 
     FM222000 25008KT P6SM FEW070 SCT140